Diamond Bar, CA

6:31 AM PDT on May 24, 2015 (GMT -0700)
Windmill Creek | | Change Station
CLOSE
Current Station
Personal Weather Station
Location: Chino Hills, CA
Elevation: 1319 ft
Nearby Weather Stations

Elev 1319 ft 33.98 °N, 117.77 °W | Updated 36 seconds ago

Overcast
Overcast
55.2 °F
Feels Like 55.2 °F
N
1.1
Wind Variable Wind from WNW
Gusts 2.5 mph

Today
High -- | Low -- °F
--% Chance of Precip.
Yesterday
High -- | Low -- °F
Precip. -- in
5:44 AM 7:52 PM
Waxing Crescent, 39% visible
Pressure 30.00 in
Visibility 10.0 miles
Clouds Few 1700 ft
Mostly Cloudy 2600 ft
Overcast 3500 ft
Dew Point 50 °F
Humidity 84%
Rainfall 0.00 in
Snow Depth Not available.
UV 0.0 out of 12
Pollen 4.70 out of 12
Air Quality Not available.
Flu Activity Sporadic
SPECI KCNO 241300Z AUTO 29005KT 10SM FEW017 BKN026 OVC035 16/12 A3000 RMK AO2 T01560117 $

More Conditions Fewer Conditions

Pressure 30.00 in
Visibility 10.0 miles
Clouds Few 1700 ft
Mostly Cloudy 2600 ft
Overcast 3500 ft
Dew Point 50 °F
Humidity 84%
Rainfall 0.00 in
Snow Depth Not available.
UV 0.0 out of 12
Pollen 4.70 out of 12
Air Quality Not available.
Flu Activity Sporadic
SPECI KCNO 241300Z AUTO 29005KT 10SM FEW017 BKN026 OVC035 16/12 A3000 RMK AO2 T01560117 $

More Conditions Fewer Conditions

10-Day Weather Forecast

Almanac

Astronomy

May. 24, 2015 Rise Set
Actual Time
Civil Twilight
Nautical Twilight
Astronomical Twilight
Moon
Length of Visible Light
Length of Day
Tomorrow will be .
, % of the Moon is Illuminated

Today's Extremes

State Highs State Lows

Community

WunderPhotos

Upload Photos

1,823,736 photos uploaded!

WunderBlogs® & News

Nearby

Air Quality

  Air Quality AQ Index Pollutant
Not available.

Snow Depth

Station Depth Elevation

Earthquake Activity

City Distance Mag. Time & Date
Minimum magnitude displayed is 2.5.

Coastal Water Temperatures

Place Temperature

Stations

Nearby Weather Stations

Station Location Temp. Windchill Dew Point Humidity Wind Precip. Elev Updated Type